Time;durP1;ratioP1;P1;durP2;ratioP2;P2;SDS_P1;SDS_P2;PMS_P1;PMS_P2;Temp;Humidity;BMP_temperature;BMP_pressure;BME280_temperature;BME280_humidity;BME280_pressure;Samples;Min_cycle;Max_cycle;Signal;HPM_P1;HPM_P2
2023/08/31 00:00:10;;;;;;;;;;;;;;;;;;2062020;28;20325;-77
2023/08/31 00:01:30;;;;;;;;;;;;;;;;;;2057548;28;19918;-77
2023/08/31 00:02:51;;;;;;;;;;;;;;;;;;2055861;28;19914;-77
2023/08/31 00:04:14;;;;;;;;;;;;;;;;;;2050096;28;20326;-77
2023/08/31 00:05:35;;;;;;;;;;;;;;;;;;2071337;28;20365;-79
2023/08/31 00:06:56;;;;;;;;;;;;;;;;;;2058155;28;19911;-78
2023/08/31 00:08:17;;;;;;;;;;;;;;;;;;2064928;28;19910;-77
2023/08/31 00:09:39;;;;;;;;;;;;;;;;;;2057640;28;19918;-77
2023/08/31 00:11:00;;;;;;;;;;;;;;;;;;2064774;28;19921;-77
2023/08/31 00:12:22;;;;;;;;;;;;;;;;;;2050291;28;19922;-77
2023/08/31 00:13:42;;;;;;;;;;;;;;;;;;2069609;28;19921;-78
2023/08/31 00:15:04;;;;;;;;;;;;;;;;;;2068817;28;19913;-77
2023/08/31 00:16:26;;;;;;;;;;;;;;;;;;2064967;28;20518;-77
2023/08/31 00:17:46;;;;;;;;;;;;;;;;;;2058753;28;20301;-77
2023/08/31 00:19:07;;;;;;;;;;;;;;;;;;2056139;28;19911;-78
2023/08/31 00:20:30;;;;;;;;;;;;;;;;;;2060102;28;19917;-77
2023/08/31 00:21:51;;;;;;;;;;;;;;;;;;2058644;28;19914;-77
2023/08/31 00:23:11;;;;;;;;;;;;;;;;;;2063600;28;19917;-76
2023/08/31 00:24:36;;;;;;;;;;;;;;;;;;2061612;28;19910;-77
2023/08/31 00:25:57;;;;;;;;;;;;;;;;;;2058685;28;20176;-77
2023/08/31 00:27:18;;;;;;;;;;;;;;;;;;2050674;28;19917;-77
2023/08/31 00:28:39;;;;;;;;;;;;;;;;;;2050875;28;19911;-77
2023/08/31 00:30:02;;;;;;;;;;;;;;;;;;2066276;28;20328;-77
2023/08/31 00:31:22;;;;;;;;;;;;;;;;;;2068797;28;19917;-77
2023/08/31 00:32:43;;;;;;;;;;;;;;;;;;2065093;28;19914;-77
2023/08/31 00:34:04;;;;;;;;;;;;;;;;;;2059994;28;20290;-77
2023/08/31 00:35:26;;;;;;;;;;;;;;;;;;2069652;28;20384;-78
2023/08/31 00:36:46;;;;;;;;;;;;;;;;;;2072258;28;19913;-77
2023/08/31 00:38:07;;;;;;;;;;;;;;;;;;2074042;28;19909;-78
2023/08/31 00:39:28;;;;;;;;;;;;;;;;;;2072166;28;19917;-77
2023/08/31 00:40:48;;;;;;;;;;;;;;;;;;2063557;28;19910;-77
2023/08/31 00:42:09;;;;;;;;;;;;;;;;;;2063583;28;20344;-77
2023/08/31 00:43:31;;;;;;;;;;;;;;;;;;2068524;28;19928;-78
2023/08/31 00:44:52;;;;;;;;;;;;;;;;;;2062285;28;19918;-78
2023/08/31 00:46:12;;;;;;;;;;;;;;;;;;2055537;28;19910;-78
2023/08/31 00:47:33;;;;;;;;;;;;;;;;;;2070152;28;20645;-78
2023/08/31 00:48:54;;;;;;;;;;;;;;;;;;2055169;28;19914;-78
2023/08/31 00:50:15;;;;;;;;;;;;;;;;;;2065821;28;20332;-78
2023/08/31 00:51:36;;;;;;;;;;;;;;;;;;2066568;28;20280;-77
2023/08/31 00:52:57;;;;;;;;;;;;;;;;;;2056798;28;20945;-77
2023/08/31 00:54:18;;;;;;;;;;;;;;;;;;2057639;28;19917;-78
2023/08/31 00:55:40;;;;;;;;;;;;;;;;;;2064136;28;19917;-78
2023/08/31 00:57:00;;;;;;;;;;;;;;;;;;2066825;28;20074;-78
2023/08/31 00:58:21;;;;;;;;;;;;;;;;;;2059584;28;19914;-78
2023/08/31 00:59:42;;;;;;;;;;;;;;;;;;2070369;28;19920;-78
2023/08/31 01:01:03;;;;;;;;;;;;;;;;;;2060771;28;19921;-78
2023/08/31 01:02:24;;;;;;;;;;;;;;;;;;2064894;28;20369;-78
2023/08/31 01:03:44;;;;;;;;;;;;;;;;;;2054727;28;19934;-78
2023/08/31 01:05:06;;;;;;;;;;;;;;;;;;2060923;28;19914;-78
2023/08/31 01:06:27;;;;;;;;;;;;;;;;;;2063765;28;19929;-78
2023/08/31 01:07:47;;;;;;;;;;;;;;;;;;2063237;28;20452;-78
2023/08/31 01:09:09;;;;;;;;;;;;;;;;;;2058118;28;19911;-78
2023/08/31 01:10:30;;;;;;;;;;;;;;;;;;2064019;28;19910;-78
2023/08/31 01:11:51;;;;;;;;;;;;;;;;;;2072932;28;20431;-78
2023/08/31 01:13:13;;;;;;;;;;;;;;;;;;2072547;28;19913;-78
2023/08/31 01:14:34;;;;;;;;;;;;;;;;;;2072816;28;19925;-78
2023/08/31 01:15:55;;;;;;;;;;;;;;;;;;2076000;28;19921;-78
2023/08/31 01:17:15;;;;;;;;;;;;;;;;;;2066348;28;19910;-79
2023/08/31 01:18:37;;;;;;;;;;;;;;;;;;2064730;28;19988;-78
2023/08/31 01:19:57;;;;;;;;;;;;;;;;;;2069764;28;20297;-78
2023/08/31 01:21:18;;;;;;;;;;;;;;;;;;2067271;28;19917;-78
2023/08/31 01:22:40;;;;;;;;;;;;;;;;;;2064917;28;19917;-79
2023/08/31 01:24:01;;;;;;;;;;;;;;;;;;2071650;28;19960;-78
2023/08/31 01:25:21;;;;;;;;;;;;;;;;;;2073239;28;19909;-78
2023/08/31 01:26:42;;;;;;;;;;;;;;;;;;2074537;28;19910;-78
2023/08/31 01:28:06;;;;;;;;;;;;;;;;;;2074137;28;19910;-78
2023/08/31 01:29:26;;;;;;;;;;;;;;;;;;2072772;28;19925;-78
2023/08/31 01:30:47;;;;;;;;;;;;;;;;;;2070141;28;19921;-78
2023/08/31 01:32:08;;;;;;;;;;;;;;;;;;2056790;28;19910;-78
2023/08/31 01:33:29;;;;;;;;;;;;;;;;;;2062918;28;19925;-78
2023/08/31 01:34:50;;;;;;;;;;;;;;;;;;2071081;28;19925;-77
2023/08/31 01:36:10;;;;;;;;;;;;;;;;;;2067826;28;20297;-79
2023/08/31 01:37:31;;;;;;;;;;;;;;;;;;2073283;28;19910;-78
2023/08/31 01:38:52;;;;;;;;;;;;;;;;;;2074847;28;19917;-78
2023/08/31 01:40:13;;;;;;;;;;;;;;;;;;2074309;28;19909;-79
2023/08/31 01:41:35;;;;;;;;;;;;;;;;;;2075842;28;19967;-78
2023/08/31 01:42:55;;;;;;;;;;;;;;;;;;2072299;28;19909;-78
2023/08/31 01:44:16;;;;;;;;;;;;;;;;;;2074894;28;19921;-78
2023/08/31 01:45:40;;;;;;;;;;;;;;;;;;2072522;28;19976;-78
2023/08/31 01:47:00;;;;;;;;;;;;;;;;;;2073429;28;19909;-78
2023/08/31 01:48:21;;;;;;;;;;;;;;;;;;2079326;28;19967;-79
2023/08/31 01:49:43;;;;;;;;;;;;;;;;;;2071015;28;19913;-78
2023/08/31 01:51:04;;;;;;;;;;;;;;;;;;2073877;28;19910;-78
2023/08/31 01:52:25;;;;;;;;;;;;;;;;;;2073532;28;20274;-78
2023/08/31 01:53:46;;;;;;;;;;;;;;;;;;2072407;28;19933;-78
2023/08/31 01:55:06;;;;;;;;;;;;;;;;;;2072444;28;19909;-78
2023/08/31 01:56:27;;;;;;;;;;;;;;;;;;2068317;28;19913;-78
2023/08/31 01:57:48;;;;;;;;;;;;;;;;;;2073766;28;19910;-78
2023/08/31 01:59:08;;;;;;;;;;;;;;;;;;2079367;28;20439;-77
2023/08/31 02:00:29;;;;;;;;;;;;;;;;;;2065782;28;19930;-80
2023/08/31 02:01:50;;;;;;;;;;;;;;;;;;2073344;28;20389;-78
2023/08/31 02:03:11;;;;;;;;;;;;;;;;;;2074673;28;19914;-78
2023/08/31 02:04:31;;;;;;;;;;;;;;;;;;2066732;28;19910;-78
2023/08/31 02:05:52;;;;;;;;;;;;;;;;;;2071034;28;20459;-78
2023/08/31 02:07:13;;;;;;;;;;;;;;;;;;2070124;28;19917;-78
2023/08/31 02:08:34;;;;;;;;;;;;;;;;;;2073810;28;20299;-78
2023/08/31 02:09:55;;;;;;;;;;;;;;;;;;2073248;28;19910;-75
2023/08/31 02:11:15;;;;;;;;;;;;;;;;;;2069581;28;20381;-75
2023/08/31 02:12:36;;;;;;;;;;;;;;;;;;2073633;28;19914;-75
2023/08/31 02:13:57;;;;;;;;;;;;;;;;;;2073412;28;19917;-74
2023/08/31 02:15:18;;;;;;;;;;;;;;;;;;2077934;28;19913;-74
2023/08/31 02:16:39;;;;;;;;;;;;;;;;;;2072964;28;19914;-75
2023/08/31 02:18:00;;;;;;;;;;;;;;;;;;2074276;28;19913;-75
2023/08/31 02:19:20;;;;;;;;;;;;;;;;;;2072822;28;19913;-75
2023/08/31 02:20:41;;;;;;;;;;;;;;;;;;2074536;28;19909;-75
2023/08/31 02:22:02;;;;;;;;;;;;;;;;;;2078120;28;20293;-76
2023/08/31 02:23:22;;;;;;;;;;;;;;;;;;2080537;28;19920;-75
2023/08/31 02:24:44;;;;;;;;;;;;;;;;;;2073064;28;19909;-75
2023/08/31 02:26:05;;;;;;;;;;;;;;;;;;2066765;28;20455;-75
2023/08/31 02:27:25;;;;;;;;;;;;;;;;;;2060723;28;19918;-75
2023/08/31 02:28:46;;;;;;;;;;;;;;;;;;2072046;28;19910;-75
2023/08/31 02:30:07;;;;;;;;;;;;;;;;;;2074680;28;20019;-75
2023/08/31 02:31:27;;;;;;;;;;;;;;;;;;2073055;28;19909;-75
2023/08/31 02:32:48;;;;;;;;;;;;;;;;;;2074329;28;20277;-74
2023/08/31 02:34:09;;;;;;;;;;;;;;;;;;2077640;28;19926;-75
2023/08/31 02:35:29;;;;;;;;;;;;;;;;;;2076225;28;19925;-75
2023/08/31 02:36:50;;;;;;;;;;;;;;;;;;2070921;28;19984;-74
2023/08/31 02:38:11;;;;;;;;;;;;;;;;;;2079541;28;19913;-74
2023/08/31 02:39:31;;;;;;;;;;;;;;;;;;2077485;28;19909;-75
2023/08/31 02:40:52;;;;;;;;;;;;;;;;;;2071084;28;19948;-75
2023/08/31 02:42:13;;;;;;;;;;;;;;;;;;2065703;28;20353;-75
2023/08/31 02:43:33;;;;;;;;;;;;;;;;;;2065426;28;19925;-75
2023/08/31 02:44:54;;;;;;;;;;;;;;;;;;2076376;28;19933;-75
2023/08/31 02:46:15;;;;;;;;;;;;;;;;;;2074695;28;19909;-75
2023/08/31 02:47:36;;;;;;;;;;;;;;;;;;2066473;28;19977;-75
2023/08/31 02:48:56;;;;;;;;;;;;;;;;;;2066260;28;19910;-75
2023/08/31 02:50:17;;;;;;;;;;;;;;;;;;2069134;28;19913;-75
2023/08/31 02:51:38;;;;;;;;;;;;;;;;;;2071444;28;19910;-75
2023/08/31 02:52:59;;;;;;;;;;;;;;;;;;2080400;28;20269;-75
2023/08/31 02:54:19;;;;;;;;;;;;;;;;;;2065556;28;19926;-75
2023/08/31 02:55:40;;;;;;;;;;;;;;;;;;2069531;28;19922;-75
2023/08/31 02:57:02;;;;;;;;;;;;;;;;;;2060643;28;19921;-75
2023/08/31 02:58:22;;;;;;;;;;;;;;;;;;2065198;28;19932;-75
2023/08/31 02:59:43;;;;;;;;;;;;;;;;;;2065488;28;19940;-75
2023/08/31 03:01:04;;;;;;;;;;;;;;;;;;2063996;28;20412;-75
2023/08/31 03:02:24;;;;;;;;;;;;;;;;;;2058163;28;19918;-75
2023/08/31 03:03:46;;;;;;;;;;;;;;;;;;2065003;28;19964;-75
2023/08/31 03:05:07;;;;;;;;;;;;;;;;;;2075400;28;19910;-75
2023/08/31 03:06:27;;;;;;;;;;;;;;;;;;2070106;28;20277;-74
2023/08/31 03:07:48;;;;;;;;;;;;;;;;;;2065650;28;19910;-75
2023/08/31 03:09:09;;;;;;;;;;;;;;;;;;2065908;28;19913;-74
2023/08/31 03:10:30;;;;;;;;;;;;;;;;;;2072963;28;20381;-75
2023/08/31 03:11:51;;;;;;;;;;;;;;;;;;2072036;28;19913;-74
2023/08/31 03:13:11;;;;;;;;;;;;;;;;;;2073218;28;19910;-74
2023/08/31 03:14:32;;;;;;;;;;;;;;;;;;2074176;28;19925;-75
2023/08/31 03:15:53;;;;;;;;;;;;;;;;;;2069946;28;19909;-75
2023/08/31 03:17:14;;;;;;;;;;;;;;;;;;2065140;28;19914;-75
2023/08/31 03:18:34;;;;;;;;;;;;;;;;;;2067500;28;20304;-75
2023/08/31 03:19:55;;;;;;;;;;;;;;;;;;2068939;28;19910;-74
2023/08/31 03:21:16;;;;;;;;;;;;;;;;;;2068745;28;19909;-75
2023/08/31 03:22:36;;;;;;;;;;;;;;;;;;2064526;28;19913;-75
2023/08/31 03:23:57;;;;;;;;;;;;;;;;;;2070002;28;20316;-75
2023/08/31 03:25:18;;;;;;;;;;;;;;;;;;2070658;28;19940;-74
2023/08/31 03:26:38;;;;;;;;;;;;;;;;;;2070640;28;19916;-75
2023/08/31 03:27:59;;;;;;;;;;;;;;;;;;2072935;28;19917;-74
2023/08/31 03:29:20;;;;;;;;;;;;;;;;;;2072675;28;19920;-75
2023/08/31 03:30:41;;;;;;;;;;;;;;;;;;2064505;28;19993;-75
2023/08/31 03:32:02;;;;;;;;;;;;;;;;;;2075135;28;20299;-74
2023/08/31 03:33:23;;;;;;;;;;;;;;;;;;2079833;28;19909;-74
2023/08/31 03:34:43;;;;;;;;;;;;;;;;;;2058510;28;20021;-75
2023/08/31 03:36:04;;;;;;;;;;;;;;;;;;2059345;28;19929;-74
2023/08/31 03:37:25;;;;;;;;;;;;;;;;;;2055381;28;19914;-75
2023/08/31 03:38:45;;;;;;;;;;;;;;;;;;2054827;28;19917;-75
2023/08/31 03:40:06;;;;;;;;;;;;;;;;;;2051682;28;20282;-75
2023/08/31 03:41:27;;;;;;;;;;;;;;;;;;2049123;28;20293;-74
2023/08/31 03:42:48;;;;;;;;;;;;;;;;;;2050415;28;20015;-75
2023/08/31 03:44:09;;;;;;;;;;;;;;;;;;2049982;28;20271;-75
2023/08/31 03:45:29;;;;;;;;;;;;;;;;;;2064925;28;19941;-75
2023/08/31 03:46:50;;;;;;;;;;;;;;;;;;2071655;28;19917;-75
2023/08/31 03:48:11;;;;;;;;;;;;;;;;;;2065176;28;20300;-73
2023/08/31 03:49:31;;;;;;;;;;;;;;;;;;2060359;28;19917;-75
2023/08/31 03:50:52;;;;;;;;;;;;;;;;;;2063490;28;19909;-75
2023/08/31 03:52:13;;;;;;;;;;;;;;;;;;2063754;28;19914;-75
2023/08/31 03:53:34;;;;;;;;;;;;;;;;;;2057500;28;20370;-75
2023/08/31 03:54:54;;;;;;;;;;;;;;;;;;2061546;28;19917;-74
2023/08/31 03:56:15;;;;;;;;;;;;;;;;;;2063275;28;20123;-75
2023/08/31 03:57:36;;;;;;;;;;;;;;;;;;2065014;28;19921;-75
2023/08/31 03:58:57;;;;;;;;;;;;;;;;;;2071553;28;19909;-75
2023/08/31 04:00:18;;;;;;;;;;;;;;;;;;2064126;28;20408;-75
2023/08/31 04:01:38;;;;;;;;;;;;;;;;;;2070316;28;19910;-75
2023/08/31 04:02:59;;;;;;;;;;;;;;;;;;2065364;28;19910;-75
2023/08/31 04:04:20;;;;;;;;;;;;;;;;;;2057527;28;19925;-74
2023/08/31 04:05:40;;;;;;;;;;;;;;;;;;2063885;28;19918;-74
2023/08/31 04:07:01;;;;;;;;;;;;;;;;;;2063450;28;19925;-74
2023/08/31 04:08:22;;;;;;;;;;;;;;;;;;2064752;28;20345;-74
2023/08/31 04:09:43;;;;;;;;;;;;;;;;;;2064005;28;19914;-74
2023/08/31 04:11:03;;;;;;;;;;;;;;;;;;2055544;28;19917;-75
2023/08/31 04:12:24;;;;;;;;;;;;;;;;;;2055127;28;19914;-74
2023/08/31 04:13:45;;;;;;;;;;;;;;;;;;2057733;28;19910;-74
2023/08/31 04:15:06;;;;;;;;;;;;;;;;;;2063178;28;19918;-74
2023/08/31 04:16:27;;;;;;;;;;;;;;;;;;2059939;28;19910;-74
2023/08/31 04:17:49;;;;;;;;;;;;;;;;;;2063988;28;19914;-75
2023/08/31 04:19:10;;;;;;;;;;;;;;;;;;2062180;28;20025;-74
2023/08/31 04:20:31;;;;;;;;;;;;;;;;;;2064571;28;19917;-74
2023/08/31 04:21:51;;;;;;;;;;;;;;;;;;2063625;28;19927;-74
2023/08/31 04:23:12;;;;;;;;;;;;;;;;;;2063850;28;19914;-73
2023/08/31 04:24:33;;;;;;;;;;;;;;;;;;2060802;28;19961;-73
2023/08/31 04:25:53;;;;;;;;;;;;;;;;;;2059430;28;19917;-74
2023/08/31 04:27:14;;;;;;;;;;;;;;;;;;2057037;28;20364;-73
2023/08/31 04:28:35;;;;;;;;;;;;;;;;;;2056874;28;19911;-73
2023/08/31 04:29:55;;;;;;;;;;;;;;;;;;2064411;28;19933;-74
2023/08/31 04:31:16;;;;;;;;;;;;;;;;;;2062679;28;20305;-74
2023/08/31 04:32:37;;;;;;;;;;;;;;;;;;2070430;28;19917;-74
2023/08/31 04:33:58;;;;;;;;;;;;;;;;;;2048730;28;20311;-74
2023/08/31 04:35:19;;;;;;;;;;;;;;;;;;2067786;28;19922;-74
2023/08/31 04:36:39;;;;;;;;;;;;;;;;;;2077489;28;19912;-74
2023/08/31 04:38:00;;;;;;;;;;;;;;;;;;2080869;28;19937;-74
2023/08/31 04:39:21;;;;;;;;;;;;;;;;;;2079546;28;20277;-74
2023/08/31 04:40:43;;;;;;;;;;;;;;;;;;2073102;28;19910;-74
2023/08/31 04:42:04;;;;;;;;;;;;;;;;;;2074945;28;19972;-74
2023/08/31 04:43:24;;;;;;;;;;;;;;;;;;2073604;28;19917;-74
2023/08/31 04:44:45;;;;;;;;;;;;;;;;;;2070148;28;19931;-73
2023/08/31 04:46:06;;;;;;;;;;;;;;;;;;2071658;28;20284;-74
2023/08/31 04:47:27;;;;;;;;;;;;;;;;;;2061235;28;19914;-75
2023/08/31 04:48:48;;;;;;;;;;;;;;;;;;2069977;28;19913;-74
2023/08/31 04:50:08;;;;;;;;;;;;;;;;;;2060662;28;19914;-74
2023/08/31 04:51:29;;;;;;;;;;;;;;;;;;2071453;28;19916;-74
2023/08/31 04:52:50;;;;;;;;;;;;;;;;;;2063767;28;19921;-75
2023/08/31 04:54:10;;;;;;;;;;;;;;;;;;2059344;28;19918;-74
2023/08/31 04:55:31;;;;;;;;;;;;;;;;;;2072635;28;20575;-74
2023/08/31 04:56:52;;;;;;;;;;;;;;;;;;2073068;28;19957;-74
2023/08/31 04:58:12;;;;;;;;;;;;;;;;;;2069547;28;19949;-74
2023/08/31 04:59:33;;;;;;;;;;;;;;;;;;2066022;28;19917;-75
2023/08/31 05:00:54;;;;;;;;;;;;;;;;;;2068600;28;20261;-75
2023/08/31 05:02:14;;;;;;;;;;;;;;;;;;2072851;28;19960;-75
2023/08/31 05:03:35;;;;;;;;;;;;;;;;;;2071713;28;19921;-74
2023/08/31 05:04:56;;;;;;;;;;;;;;;;;;2070050;28;19918;-75
2023/08/31 05:06:16;;;;;;;;;;;;;;;;;;2071479;28;19910;-74
2023/08/31 05:07:37;;;;;;;;;;;;;;;;;;2064481;28;19917;-75
2023/08/31 05:08:58;;;;;;;;;;;;;;;;;;2071122;28;19910;-74
2023/08/31 05:10:18;;;;;;;;;;;;;;;;;;2062667;28;19981;-75
2023/08/31 05:11:39;;;;;;;;;;;;;;;;;;2071656;28;20407;-74
2023/08/31 05:13:00;;;;;;;;;;;;;;;;;;2067282;28;19910;-75
2023/08/31 05:14:21;;;;;;;;;;;;;;;;;;2062963;28;20305;-75
2023/08/31 05:15:41;;;;;;;;;;;;;;;;;;2066141;28;19917;-74
2023/08/31 05:17:02;;;;;;;;;;;;;;;;;;2075898;28;20364;-75
2023/08/31 05:18:23;;;;;;;;;;;;;;;;;;2069381;28;19913;-75
2023/08/31 05:19:43;;;;;;;;;;;;;;;;;;2073264;28;20379;-75
2023/08/31 05:21:04;;;;;;;;;;;;;;;;;;2071900;28;19914;-74
2023/08/31 05:22:25;;;;;;;;;;;;;;;;;;2076572;28;19913;-74
2023/08/31 05:23:46;;;;;;;;;;;;;;;;;;2070416;28;20300;-75
2023/08/31 05:25:06;;;;;;;;;;;;;;;;;;2070909;28;19918;-75
2023/08/31 05:26:27;;;;;;;;;;;;;;;;;;2062952;28;19944;-75
2023/08/31 05:27:48;;;;;;;;;;;;;;;;;;2069919;28;19929;-76
2023/08/31 05:29:09;;;;;;;;;;;;;;;;;;2071306;28;19909;-75
2023/08/31 05:30:30;;;;;;;;;;;;;;;;;;2067672;28;20368;-75
2023/08/31 05:31:50;;;;;;;;;;;;;;;;;;2066198;28;19921;-75
2023/08/31 05:33:11;;;;;;;;;;;;;;;;;;2070263;28;20344;-74
2023/08/31 05:34:34;;;;;;;;;;;;;;;;;;2070933;28;19929;-75
2023/08/31 05:35:55;;;;;;;;;;;;;;;;;;2072503;28;20001;-75
2023/08/31 05:37:16;;;;;;;;;;;;;;;;;;2066244;28;19921;-75
2023/08/31 05:38:36;;;;;;;;;;;;;;;;;;2065234;28;20004;-75
2023/08/31 05:39:57;;;;;;;;;;;;;;;;;;2069500;28;20281;-79
2023/08/31 05:41:18;;;;;;;;;;;;;;;;;;2071774;28;20217;-74
2023/08/31 05:42:38;;;;;;;;;;;;;;;;;;2082132;28;19921;-73
2023/08/31 05:43:59;;;;;;;;;;;;;;;;;;2074610;28;20014;-74
2023/08/31 05:45:20;;;;;;;;;;;;;;;;;;2064027;28;19918;-74
2023/08/31 05:46:41;;;;;;;;;;;;;;;;;;2066632;28;19929;-74
2023/08/31 05:48:01;;;;;;;;;;;;;;;;;;2065837;28;19918;-73
2023/08/31 05:49:22;;;;;;;;;;;;;;;;;;2065616;28;19910;-73
2023/08/31 05:50:43;;;;;;;;;;;;;;;;;;2058949;28;19917;-74
2023/08/31 05:52:03;;;;;;;;;;;;;;;;;;2059137;28;19924;-74
2023/08/31 05:53:24;;;;;;;;;;;;;;;;;;2066413;28;19917;-74
2023/08/31 05:54:45;;;;;;;;;;;;;;;;;;2062365;28;19936;-73
2023/08/31 05:56:07;;;;;;;;;;;;;;;;;;2071864;28;19909;-73
2023/08/31 05:57:28;;;;;;;;;;;;;;;;;;2081620;28;19920;-73
2023/08/31 05:58:50;;;;;;;;;;;;;;;;;;2077701;28;19910;-74
2023/08/31 06:00:11;;;;;;;;;;;;;;;;;;2073246;28;21286;-74
2023/08/31 06:01:32;;;;;;;;;;;;;;;;;;2073165;28;19924;-74
2023/08/31 06:02:53;;;;;;;;;;;;;;;;;;2074965;28;19909;-73
2023/08/31 06:04:14;;;;;;;;;;;;;;;;;;2066164;28;19933;-74
2023/08/31 06:05:35;;;;;;;;;;;;;;;;;;2075236;28;20333;-74
2023/08/31 06:06:55;;;;;;;;;;;;;;;;;;2079254;28;19910;-74
2023/08/31 06:08:16;;;;;;;;;;;;;;;;;;2065393;28;20293;-74
2023/08/31 06:09:37;;;;;;;;;;;;;;;;;;2069686;28;19920;-74
2023/08/31 06:10:58;;;;;;;;;;;;;;;;;;2078367;28;19909;-74
2023/08/31 06:12:19;;;;;;;;;;;;;;;;;;2066648;28;20407;-74
2023/08/31 06:13:40;;;;;;;;;;;;;;;;;;2065325;28;19910;-73
2023/08/31 06:15:00;;;;;;;;;;;;;;;;;;2074580;28;19914;-74
2023/08/31 06:16:21;;;;;;;;;;;;;;;;;;2071558;28;19921;-73
2023/08/31 06:17:41;;;;;;;;;;;;;;;;;;2080761;28;19920;-74
2023/08/31 06:19:03;;;;;;;;;;;;;;;;;;2071303;28;19976;-73
2023/08/31 06:20:24;;;;;;;;;;;;;;;;;;2074878;28;19909;-74
2023/08/31 06:21:44;;;;;;;;;;;;;;;;;;2077060;28;20178;-73
2023/08/31 06:23:05;;;;;;;;;;;;;;;;;;2072807;28;20357;-73
2023/08/31 06:24:26;;;;;;;;;;;;;;;;;;2073201;28;19928;-73
2023/08/31 06:25:46;;;;;;;;;;;;;;;;;;2049978;28;19977;-74
2023/08/31 06:27:07;;;;;;;;;;;;;;;;;;2061937;28;19925;-73
2023/08/31 06:28:28;;;;;;;;;;;;;;;;;;2059086;28;20385;-73
2023/08/31 06:29:48;;;;;;;;;;;;;;;;;;2062362;28;19910;-73
2023/08/31 06:31:09;;;;;;;;;;;;;;;;;;2061374;28;19910;-74
2023/08/31 06:32:30;;;;;;;;;;;;;;;;;;2057206;28;20336;-74
2023/08/31 06:33:50;;;;;;;;;;;;;;;;;;2057378;28;19910;-73
2023/08/31 06:35:20;;;;;;;;;;;;;;;;;;2058947;28;19925;-74
2023/08/31 06:36:41;;;;;;;;;;;;;;;;;;2078287;28;19961;-74
2023/08/31 06:38:02;;;;;;;;;;;;;;;;;;2082125;28;19917;-74
2023/08/31 06:39:22;;;;;;;;;;;;;;;;;;2072651;28;19929;-74
2023/08/31 06:40:43;;;;;;;;;;;;;;;;;;2067951;28;20207;-74
2023/08/31 06:42:04;;;;;;;;;;;;;;;;;;2065471;28;19910;-74
2023/08/31 06:43:26;;;;;;;;;;;;;;;;;;2066051;28;19921;-74
2023/08/31 06:44:47;;;;;;;;;;;;;;;;;;2073053;28;20277;-74
2023/08/31 06:46:07;;;;;;;;;;;;;;;;;;2065603;28;19918;-74
2023/08/31 06:47:28;;;;;;;;;;;;;;;;;;2071560;28;20353;-74
2023/08/31 06:48:49;;;;;;;;;;;;;;;;;;2080399;28;20280;-73
2023/08/31 06:50:10;;;;;;;;;;;;;;;;;;2073304;28;19910;-73
2023/08/31 06:51:30;;;;;;;;;;;;;;;;;;2072690;28;20392;-73
2023/08/31 06:52:51;;;;;;;;;;;;;;;;;;2066740;28;19920;-73
2023/08/31 06:54:12;;;;;;;;;;;;;;;;;;2069399;28;20309;-74
2023/08/31 06:55:33;;;;;;;;;;;;;;;;;;2072448;28;19924;-73
2023/08/31 06:56:54;;;;;;;;;;;;;;;;;;2072018;28;19910;-73
2023/08/31 06:58:15;;;;;;;;;;;;;;;;;;2080336;28;19924;-74
2023/08/31 06:59:35;;;;;;;;;;;;;;;;;;2077026;28;20369;-73
2023/08/31 07:00:56;;;;;;;;;;;;;;;;;;2074583;28;19996;-73
2023/08/31 07:02:18;;;;;;;;;;;;;;;;;;2072454;28;19913;-73
2023/08/31 07:03:39;;;;;;;;;;;;;;;;;;2081396;28;19909;-73
2023/08/31 07:05:00;;;;;;;;;;;;;;;;;;2081366;28;20308;-73
2023/08/31 07:06:20;;;;;;;;;;;;;;;;;;2071454;28;19913;-74
2023/08/31 07:07:41;;;;;;;;;;;;;;;;;;2073692;28;19936;-73
2023/08/31 07:09:03;;;;;;;;;;;;;;;;;;2072542;28;19917;-73
2023/08/31 07:10:24;;;;;;;;;;;;;;;;;;2070686;28;20405;-73
2023/08/31 07:11:44;;;;;;;;;;;;;;;;;;2072384;28;19921;-73
2023/08/31 07:13:05;;;;;;;;;;;;;;;;;;2065410;28;19965;-74
2023/08/31 07:14:26;;;;;;;;;;;;;;;;;;2064811;28;20412;-73
2023/08/31 07:15:48;;;;;;;;;;;;;;;;;;2072242;28;19925;-73
2023/08/31 07:17:09;;;;;;;;;;;;;;;;;;2068468;28;20027;-74
2023/08/31 07:18:30;;;;;;;;;;;;;;;;;;2064268;28;19914;-73
2023/08/31 07:19:50;;;;;;;;;;;;;;;;;;2065178;28;19910;-74
2023/08/31 07:21:11;;;;;;;;;;;;;;;;;;2077247;28;19921;-73
2023/08/31 07:22:32;;;;;;;;;;;;;;;;;;2073756;28;19913;-73
2023/08/31 07:23:52;;;;;;;;;;;;;;;;;;2065104;28;19910;-73
2023/08/31 07:25:13;;;;;;;;;;;;;;;;;;2069516;28;19917;-74
2023/08/31 07:26:34;;;;;;;;;;;;;;;;;;2073040;28;19910;-73
2023/08/31 07:27:55;;;;;;;;;;;;;;;;;;2075973;28;19910;-73
2023/08/31 07:29:16;;;;;;;;;;;;;;;;;;2072257;28;20005;-73
2023/08/31 07:30:37;;;;;;;;;;;;;;;;;;2073248;28;19909;-73
2023/08/31 07:31:57;;;;;;;;;;;;;;;;;;2070969;28;20266;-74
2023/08/31 07:33:18;;;;;;;;;;;;;;;;;;2064727;28;19914;-74
2023/08/31 07:34:39;;;;;;;;;;;;;;;;;;2072419;28;19913;-73
2023/08/31 07:35:59;;;;;;;;;;;;;;;;;;2065158;28;19926;-74
2023/08/31 07:37:20;;;;;;;;;;;;;;;;;;2062259;28;19918;-73
2023/08/31 07:38:41;;;;;;;;;;;;;;;;;;2057175;28;19921;-73
2023/08/31 07:40:01;;;;;;;;;;;;;;;;;;2062699;28;19921;-73
2023/08/31 07:41:22;;;;;;;;;;;;;;;;;;2057358;28;19923;-74
2023/08/31 07:42:43;;;;;;;;;;;;;;;;;;2063255;28;19917;-74
2023/08/31 07:44:03;;;;;;;;;;;;;;;;;;2065018;28;19917;-73
2023/08/31 07:45:24;;;;;;;;;;;;;;;;;;2057627;28;19923;-72
2023/08/31 07:46:45;;;;;;;;;;;;;;;;;;2065093;28;20395;-73
2023/08/31 07:48:06;;;;;;;;;;;;;;;;;;2062030;28;19910;-73
2023/08/31 07:49:27;;;;;;;;;;;;;;;;;;2057084;28;20014;-73
2023/08/31 07:50:48;;;;;;;;;;;;;;;;;;2062511;28;19918;-72
2023/08/31 07:52:09;;;;;;;;;;;;;;;;;;2065652;28;19964;-73
2023/08/31 07:53:30;;;;;;;;;;;;;;;;;;2049899;28;19914;-72
2023/08/31 07:54:50;;;;;;;;;;;;;;;;;;2060937;28;19917;-72
2023/08/31 07:56:11;;;;;;;;;;;;;;;;;;2068475;28;19917;-73
2023/08/31 07:57:32;;;;;;;;;;;;;;;;;;2057254;28;20266;-73
2023/08/31 07:58:52;;;;;;;;;;;;;;;;;;2062122;28;19932;-73
2023/08/31 08:00:14;;;;;;;;;;;;;;;;;;2064601;28;19910;-74
2023/08/31 08:01:35;;;;;;;;;;;;;;;;;;2063876;28;19921;-73
2023/08/31 08:02:56;;;;;;;;;;;;;;;;;;2069790;28;19916;-73
2023/08/31 08:04:19;;;;;;;;;;;;;;;;;;2056274;28;19917;-74
2023/08/31 08:05:40;;;;;;;;;;;;;;;;;;2063907;28;19921;-74
2023/08/31 08:07:03;;;;;;;;;;;;;;;;;;2064919;28;20675;-73
2023/08/31 08:08:23;;;;;;;;;;;;;;;;;;2072101;28;19932;-74
2023/08/31 08:09:44;;;;;;;;;;;;;;;;;;2064838;28;19921;-72
2023/08/31 08:11:05;;;;;;;;;;;;;;;;;;2061329;28;19972;-73
2023/08/31 08:12:25;;;;;;;;;;;;;;;;;;2062979;28;19917;-73
2023/08/31 08:13:46;;;;;;;;;;;;;;;;;;2056753;28;19915;-74
2023/08/31 08:15:08;;;;;;;;;;;;;;;;;;2067898;28;19909;-73
2023/08/31 08:16:29;;;;;;;;;;;;;;;;;;2064901;28;20361;-73
2023/08/31 08:17:49;;;;;;;;;;;;;;;;;;2056523;28;19914;-73
2023/08/31 08:19:10;;;;;;;;;;;;;;;;;;2062045;28;19909;-73
2023/08/31 08:20:31;;;;;;;;;;;;;;;;;;2064442;28;19918;-73
2023/08/31 08:21:52;;;;;;;;;;;;;;;;;;2062246;28;19913;-73
2023/08/31 08:23:12;;;;;;;;;;;;;;;;;;2057191;28;20109;-73
2023/08/31 08:24:33;;;;;;;;;;;;;;;;;;2056906;28;19914;-72
2023/08/31 08:25:54;;;;;;;;;;;;;;;;;;2062525;28;20242;-73
2023/08/31 08:27:14;;;;;;;;;;;;;;;;;;2061192;28;20459;-74
2023/08/31 08:28:35;;;;;;;;;;;;;;;;;;2057036;28;19914;-74
2023/08/31 08:29:56;;;;;;;;;;;;;;;;;;2061942;28;19949;-74
2023/08/31 08:31:16;;;;;;;;;;;;;;;;;;2063461;28;19910;-73
2023/08/31 08:32:37;;;;;;;;;;;;;;;;;;2064239;28;20413;-73
2023/08/31 08:33:58;;;;;;;;;;;;;;;;;;2063201;28;19917;-73
2023/08/31 08:35:18;;;;;;;;;;;;;;;;;;2065709;28;19925;-73
2023/08/31 08:36:39;;;;;;;;;;;;;;;;;;2052418;28;19910;-74
2023/08/31 08:38:00;;;;;;;;;;;;;;;;;;2061413;28;20472;-74
2023/08/31 08:39:21;;;;;;;;;;;;;;;;;;2056937;28;19961;-74
2023/08/31 08:40:41;;;;;;;;;;;;;;;;;;2063758;28;19914;-73
2023/08/31 08:42:02;;;;;;;;;;;;;;;;;;2055996;28;19918;-74
2023/08/31 08:43:23;;;;;;;;;;;;;;;;;;2048744;28;19910;-74
2023/08/31 08:44:43;;;;;;;;;;;;;;;;;;2059461;28;20313;-75
2023/08/31 08:46:04;;;;;;;;;;;;;;;;;;2064280;28;20242;-73
2023/08/31 08:47:27;;;;;;;;;;;;;;;;;;2062816;28;19932;-74
2023/08/31 08:48:48;;;;;;;;;;;;;;;;;;2055912;28;19910;-74
2023/08/31 08:50:08;;;;;;;;;;;;;;;;;;2057549;28;19982;-74
2023/08/31 08:51:30;;;;;;;;;;;;;;;;;;2053994;28;19990;-73
2023/08/31 08:52:51;;;;;;;;;;;;;;;;;;2062731;28;19917;-73
2023/08/31 08:54:11;;;;;;;;;;;;;;;;;;2065059;28;20017;-72
2023/08/31 08:55:32;;;;;;;;;;;;;;;;;;2064482;28;19914;-73
2023/08/31 08:56:53;;;;;;;;;;;;;;;;;;2056824;28;19914;-74
2023/08/31 08:58:13;;;;;;;;;;;;;;;;;;2054162;28;19925;-73
2023/08/31 08:59:34;;;;;;;;;;;;;;;;;;2053966;28;20356;-73
2023/08/31 09:00:56;;;;;;;;;;;;;;;;;;2053324;28;20325;-74
2023/08/31 09:02:17;;;;;;;;;;;;;;;;;;2061381;28;19940;-74
2023/08/31 09:03:37;;;;;;;;;;;;;;;;;;2057327;28;20286;-73
2023/08/31 09:04:58;;;;;;;;;;;;;;;;;;2060776;28;19916;-73
2023/08/31 09:06:20;;;;;;;;;;;;;;;;;;2062845;28;19988;-73
2023/08/31 09:07:41;;;;;;;;;;;;;;;;;;2059835;28;19910;-74
2023/08/31 09:09:03;;;;;;;;;;;;;;;;;;2051072;28;19918;-74
2023/08/31 09:10:24;;;;;;;;;;;;;;;;;;2048892;28;19921;-74
2023/08/31 09:11:45;;;;;;;;;;;;;;;;;;2061487;28;20389;-77